sensor_id;sensor_type;location;lat;lon;timestamp;P1;durP1;ratioP1;P2;durP2;ratioP2
60088;SDS011;45961;53.574;55.878;2023-04-01T00:00:51;7.28;;;3.50;;
60088;SDS011;45961;53.574;55.878;2023-04-01T00:01:53;6.70;;;3.97;;
60088;SDS011;45961;53.574;55.878;2023-04-01T00:02:54;6.00;;;3.60;;
60088;SDS011;45961;53.574;55.878;2023-04-01T00:03:55;4.75;;;3.35;;
60088;SDS011;45961;53.574;55.878;2023-04-01T00:05:57;5.35;;;4.10;;
60088;SDS011;45961;53.574;55.878;2023-04-01T00:06:59;5.20;;;3.25;;
60088;SDS011;45961;53.574;55.878;2023-04-01T00:09:01;8.68;;;3.38;;
60088;SDS011;45961;53.574;55.878;2023-04-01T00:10:03;7.15;;;3.60;;
60088;SDS011;45961;53.574;55.878;2023-04-01T00:11:05;5.93;;;3.72;;
60088;SDS011;45961;53.574;55.878;2023-04-01T00:12:06;4.75;;;3.70;;
60088;SDS011;45961;53.574;55.878;2023-04-01T00:13:08;3.45;;;3.00;;
60088;SDS011;45961;53.574;55.878;2023-04-01T00:15:11;7.60;;;3.88;;
60088;SDS011;45961;53.574;55.878;2023-04-01T00:16:13;6.57;;;3.72;;
60088;SDS011;45961;53.574;55.878;2023-04-01T00:17:14;4.95;;;3.22;;
60088;SDS011;45961;53.574;55.878;2023-04-01T00:18:15;6.22;;;3.50;;
60088;SDS011;45961;53.574;55.878;2023-04-01T00:19:16;5.63;;;3.72;;
60088;SDS011;45961;53.574;55.878;2023-04-01T00:20:17;5.60;;;3.17;;
60088;SDS011;45961;53.574;55.878;2023-04-01T00:21:19;7.78;;;3.72;;
60088;SDS011;45961;53.574;55.878;2023-04-01T00:22:22;9.38;;;3.47;;
60088;SDS011;45961;53.574;55.878;2023-04-01T00:23:24;3.88;;;3.03;;
60088;SDS011;45961;53.574;55.878;2023-04-01T00:24:25;4.40;;;3.75;;
60088;SDS011;45961;53.574;55.878;2023-04-01T00:25:26;8.73;;;3.92;;
60088;SDS011;45961;53.574;55.878;2023-04-01T00:26:27;7.70;;;4.35;;
60088;SDS011;45961;53.574;55.878;2023-04-01T00:27:28;5.55;;;3.25;;
60088;SDS011;45961;53.574;55.878;2023-04-01T00:28:29;5.22;;;3.90;;
60088;SDS011;45961;53.574;55.878;2023-04-01T00:29:30;6.72;;;3.45;;
60088;SDS011;45961;53.574;55.878;2023-04-01T00:31:32;5.18;;;3.05;;
60088;SDS011;45961;53.574;55.878;2023-04-01T00:32:34;7.80;;;3.42;;
60088;SDS011;45961;53.574;55.878;2023-04-01T00:33:35;5.32;;;3.35;;
60088;SDS011;45961;53.574;55.878;2023-04-01T00:34:37;8.85;;;3.67;;
60088;SDS011;45961;53.574;55.878;2023-04-01T00:35:39;6.55;;;3.47;;
60088;SDS011;45961;53.574;55.878;2023-04-01T00:36:41;4.93;;;3.70;;
60088;SDS011;45961;53.574;55.878;2023-04-01T00:37:42;6.78;;;3.55;;
60088;SDS011;45961;53.574;55.878;2023-04-01T00:38:43;5.82;;;4.05;;
60088;SDS011;45961;53.574;55.878;2023-04-01T00:39:44;6.57;;;3.53;;
60088;SDS011;45961;53.574;55.878;2023-04-01T00:40:46;6.28;;;3.78;;
60088;SDS011;45961;53.574;55.878;2023-04-01T00:41:47;5.53;;;3.53;;
60088;SDS011;45961;53.574;55.878;2023-04-01T00:42:48;6.57;;;4.18;;
60088;SDS011;45961;53.574;55.878;2023-04-01T00:44:52;5.35;;;3.25;;
60088;SDS011;45961;53.574;55.878;2023-04-01T00:45:54;5.93;;;3.70;;
60088;SDS011;45961;53.574;55.878;2023-04-01T00:46:55;6.70;;;3.60;;
60088;SDS011;45961;53.574;55.878;2023-04-01T00:49:00;4.95;;;3.45;;
60088;SDS011;45961;53.574;55.878;2023-04-01T00:50:02;5.10;;;3.58;;
60088;SDS011;45961;53.574;55.878;2023-04-01T00:52:24;9.05;;;3.78;;
60088;SDS011;45961;53.574;55.878;2023-04-01T00:53:26;6.40;;;3.63;;
60088;SDS011;45961;53.574;55.878;2023-04-01T00:54:29;6.28;;;3.55;;
60088;SDS011;45961;53.574;55.878;2023-04-01T00:55:32;5.45;;;3.78;;
60088;SDS011;45961;53.574;55.878;2023-04-01T00:56:40;4.80;;;3.55;;
60088;SDS011;45961;53.574;55.878;2023-04-01T00:59:52;6.00;;;3.38;;
60088;SDS011;45961;53.574;55.878;2023-04-01T01:00:55;6.15;;;3.88;;
60088;SDS011;45961;53.574;55.878;2023-04-01T01:02:03;7.82;;;3.53;;
60088;SDS011;45961;53.574;55.878;2023-04-01T01:03:07;6.63;;;3.50;;
60088;SDS011;45961;53.574;55.878;2023-04-01T01:04:20;8.38;;;3.88;;
60088;SDS011;45961;53.574;55.878;2023-04-01T01:05:27;8.55;;;3.75;;
60088;SDS011;45961;53.574;55.878;2023-04-01T01:09:28;8.18;;;4.20;;
60088;SDS011;45961;53.574;55.878;2023-04-01T01:10:38;7.15;;;4.22;;
60088;SDS011;45961;53.574;55.878;2023-04-01T01:11:41;7.10;;;3.78;;
60088;SDS011;45961;53.574;55.878;2023-04-01T01:14:08;4.72;;;3.70;;
60088;SDS011;45961;53.574;55.878;2023-04-01T01:15:26;5.45;;;4.15;;
60088;SDS011;45961;53.574;55.878;2023-04-01T01:16:35;9.38;;;3.63;;
60088;SDS011;45961;53.574;55.878;2023-04-01T01:17:52;5.13;;;3.83;;
60088;SDS011;45961;53.574;55.878;2023-04-01T01:19:08;6.75;;;3.90;;
60088;SDS011;45961;53.574;55.878;2023-04-01T01:24:13;6.75;;;4.25;;
60088;SDS011;45961;53.574;55.878;2023-04-01T01:26:57;6.13;;;3.80;;
60088;SDS011;45961;53.574;55.878;2023-04-01T01:35:26;6.90;;;4.18;;
60088;SDS011;45961;53.574;55.878;2023-04-01T01:36:29;7.43;;;3.85;;
60088;SDS011;45961;53.574;55.878;2023-04-01T01:37:36;5.25;;;4.10;;
60088;SDS011;45961;53.574;55.878;2023-04-01T01:38:39;6.68;;;4.28;;
60088;SDS011;45961;53.574;55.878;2023-04-01T01:39:41;6.03;;;4.22;;
60088;SDS011;45961;53.574;55.878;2023-04-01T01:40:46;6.88;;;4.22;;
60088;SDS011;45961;53.574;55.878;2023-04-01T01:41:53;11.63;;;6.28;;
60088;SDS011;45961;53.574;55.878;2023-04-01T01:43:06;13.30;;;6.65;;
60088;SDS011;45961;53.574;55.878;2023-04-01T01:44:11;10.98;;;6.70;;
60088;SDS011;45961;53.574;55.878;2023-04-01T01:45:15;14.65;;;6.75;;
60088;SDS011;45961;53.574;55.878;2023-04-01T01:46:21;14.07;;;7.55;;
60088;SDS011;45961;53.574;55.878;2023-04-01T01:47:25;16.58;;;8.38;;
60088;SDS011;45961;53.574;55.878;2023-04-01T01:48:28;14.15;;;7.53;;
60088;SDS011;45961;53.574;55.878;2023-04-01T01:49:31;13.02;;;7.68;;
60088;SDS011;45961;53.574;55.878;2023-04-01T01:50:34;14.55;;;7.40;;
60088;SDS011;45961;53.574;55.878;2023-04-01T01:51:36;14.30;;;7.43;;
60088;SDS011;45961;53.574;55.878;2023-04-01T01:52:39;12.30;;;6.65;;
60088;SDS011;45961;53.574;55.878;2023-04-01T01:54:51;12.10;;;6.75;;
60088;SDS011;45961;53.574;55.878;2023-04-01T01:55:55;14.50;;;7.45;;
60088;SDS011;45961;53.574;55.878;2023-04-01T01:58:06;11.70;;;6.10;;
60088;SDS011;45961;53.574;55.878;2023-04-01T01:59:13;11.80;;;6.28;;
60088;SDS011;45961;53.574;55.878;2023-04-01T02:00:18;8.18;;;5.95;;
60088;SDS011;45961;53.574;55.878;2023-04-01T02:01:22;11.68;;;6.25;;
60088;SDS011;45961;53.574;55.878;2023-04-01T02:02:28;11.95;;;6.18;;
60088;SDS011;45961;53.574;55.878;2023-04-01T02:03:33;10.25;;;5.88;;
60088;SDS011;45961;53.574;55.878;2023-04-01T02:04:37;7.95;;;5.18;;
60088;SDS011;45961;53.574;55.878;2023-04-01T02:05:41;9.88;;;5.63;;
60088;SDS011;45961;53.574;55.878;2023-04-01T02:06:48;8.45;;;5.28;;
60088;SDS011;45961;53.574;55.878;2023-04-01T02:08:02;8.10;;;4.43;;
60088;SDS011;45961;53.574;55.878;2023-04-01T02:09:08;8.70;;;4.93;;
60088;SDS011;45961;53.574;55.878;2023-04-01T02:10:11;7.32;;;4.95;;
60088;SDS011;45961;53.574;55.878;2023-04-01T02:11:12;7.18;;;4.70;;
60088;SDS011;45961;53.574;55.878;2023-04-01T02:12:18;6.05;;;3.67;;
60088;SDS011;45961;53.574;55.878;2023-04-01T02:13:24;6.85;;;4.40;;
60088;SDS011;45961;53.574;55.878;2023-04-01T02:16:11;6.93;;;4.40;;
60088;SDS011;45961;53.574;55.878;2023-04-01T02:17:18;6.97;;;4.25;;
60088;SDS011;45961;53.574;55.878;2023-04-01T02:18:20;7.32;;;4.40;;
60088;SDS011;45961;53.574;55.878;2023-04-01T02:19:24;6.13;;;4.15;;
60088;SDS011;45961;53.574;55.878;2023-04-01T02:20:28;5.75;;;4.18;;
60088;SDS011;45961;53.574;55.878;2023-04-01T02:21:31;9.07;;;4.30;;
60088;SDS011;45961;53.574;55.878;2023-04-01T02:22:33;8.52;;;4.82;;
60088;SDS011;45961;53.574;55.878;2023-04-01T02:23:37;7.85;;;4.93;;
60088;SDS011;45961;53.574;55.878;2023-04-01T02:24:39;9.30;;;4.78;;
60088;SDS011;45961;53.574;55.878;2023-04-01T02:25:42;7.05;;;4.95;;
60088;SDS011;45961;53.574;55.878;2023-04-01T02:26:45;7.05;;;5.10;;
60088;SDS011;45961;53.574;55.878;2023-04-01T02:27:47;7.88;;;5.30;;
60088;SDS011;45961;53.574;55.878;2023-04-01T02:28:48;6.40;;;4.60;;
60088;SDS011;45961;53.574;55.878;2023-04-01T02:29:51;6.93;;;5.13;;
60088;SDS011;45961;53.574;55.878;2023-04-01T02:30:53;9.70;;;4.80;;
60088;SDS011;45961;53.574;55.878;2023-04-01T02:31:54;10.38;;;5.03;;
60088;SDS011;45961;53.574;55.878;2023-04-01T02:32:56;9.23;;;5.50;;
60088;SDS011;45961;53.574;55.878;2023-04-01T02:33:59;10.15;;;4.90;;
60088;SDS011;45961;53.574;55.878;2023-04-01T02:35:01;9.52;;;5.72;;
60088;SDS011;45961;53.574;55.878;2023-04-01T02:36:07;10.13;;;5.47;;
60088;SDS011;45961;53.574;55.878;2023-04-01T02:37:12;6.68;;;5.50;;
60088;SDS011;45961;53.574;55.878;2023-04-01T02:38:14;10.57;;;5.82;;
60088;SDS011;45961;53.574;55.878;2023-04-01T02:39:16;9.07;;;5.30;;
60088;SDS011;45961;53.574;55.878;2023-04-01T02:40:18;9.98;;;5.53;;
60088;SDS011;45961;53.574;55.878;2023-04-01T02:41:20;8.27;;;5.18;;
60088;SDS011;45961;53.574;55.878;2023-04-01T02:42:21;8.77;;;5.00;;
60088;SDS011;45961;53.574;55.878;2023-04-01T02:43:23;9.95;;;5.68;;
60088;SDS011;45961;53.574;55.878;2023-04-01T02:44:24;6.82;;;5.70;;
60088;SDS011;45961;53.574;55.878;2023-04-01T02:45:25;8.50;;;5.32;;
60088;SDS011;45961;53.574;55.878;2023-04-01T02:46:26;8.07;;;5.30;;
60088;SDS011;45961;53.574;55.878;2023-04-01T02:47:27;10.27;;;5.85;;
60088;SDS011;45961;53.574;55.878;2023-04-01T02:48:29;8.85;;;5.35;;
60088;SDS011;45961;53.574;55.878;2023-04-01T02:49:30;7.55;;;5.40;;
60088;SDS011;45961;53.574;55.878;2023-04-01T02:50:31;8.57;;;5.13;;
60088;SDS011;45961;53.574;55.878;2023-04-01T02:51:33;10.90;;;6.50;;
60088;SDS011;45961;53.574;55.878;2023-04-01T02:52:34;10.73;;;5.50;;
60088;SDS011;45961;53.574;55.878;2023-04-01T02:53:36;8.13;;;4.70;;
60088;SDS011;45961;53.574;55.878;2023-04-01T02:54:38;9.82;;;6.22;;
60088;SDS011;45961;53.574;55.878;2023-04-01T02:55:39;9.05;;;5.32;;
60088;SDS011;45961;53.574;55.878;2023-04-01T02:56:40;9.18;;;5.47;;
60088;SDS011;45961;53.574;55.878;2023-04-01T02:57:41;7.90;;;4.60;;
60088;SDS011;45961;53.574;55.878;2023-04-01T02:58:42;6.18;;;4.55;;
60088;SDS011;45961;53.574;55.878;2023-04-01T02:59:43;6.82;;;4.35;;
60088;SDS011;45961;53.574;55.878;2023-04-01T03:00:44;9.73;;;4.97;;
60088;SDS011;45961;53.574;55.878;2023-04-01T03:01:48;8.00;;;4.35;;
60088;SDS011;45961;53.574;55.878;2023-04-01T03:02:49;8.52;;;5.05;;
60088;SDS011;45961;53.574;55.878;2023-04-01T03:03:50;7.63;;;5.05;;
60088;SDS011;45961;53.574;55.878;2023-04-01T03:04:51;7.50;;;4.82;;
60088;SDS011;45961;53.574;55.878;2023-04-01T03:05:52;7.32;;;4.60;;
60088;SDS011;45961;53.574;55.878;2023-04-01T03:06:56;6.68;;;4.43;;
60088;SDS011;45961;53.574;55.878;2023-04-01T03:08:01;6.82;;;4.45;;
60088;SDS011;45961;53.574;55.878;2023-04-01T03:09:02;9.10;;;4.80;;
60088;SDS011;45961;53.574;55.878;2023-04-01T03:10:04;6.00;;;3.65;;
60088;SDS011;45961;53.574;55.878;2023-04-01T03:11:06;6.57;;;4.45;;
60088;SDS011;45961;53.574;55.878;2023-04-01T03:12:10;7.88;;;4.30;;
60088;SDS011;45961;53.574;55.878;2023-04-01T03:13:20;7.82;;;4.63;;
60088;SDS011;45961;53.574;55.878;2023-04-01T03:14:21;8.40;;;4.20;;
60088;SDS011;45961;53.574;55.878;2023-04-01T03:16:24;6.70;;;4.10;;
60088;SDS011;45961;53.574;55.878;2023-04-01T03:18:27;8.40;;;4.00;;
60088;SDS011;45961;53.574;55.878;2023-04-01T03:19:28;7.03;;;4.55;;
60088;SDS011;45961;53.574;55.878;2023-04-01T03:21:30;6.47;;;4.07;;
60088;SDS011;45961;53.574;55.878;2023-04-01T03:22:31;7.50;;;4.53;;
60088;SDS011;45961;53.574;55.878;2023-04-01T03:23:32;6.78;;;4.28;;
60088;SDS011;45961;53.574;55.878;2023-04-01T03:24:33;6.03;;;4.22;;
60088;SDS011;45961;53.574;55.878;2023-04-01T03:25:34;8.75;;;4.43;;
60088;SDS011;45961;53.574;55.878;2023-04-01T03:26:35;6.45;;;5.00;;
60088;SDS011;45961;53.574;55.878;2023-04-01T03:27:36;6.32;;;4.30;;
60088;SDS011;45961;53.574;55.878;2023-04-01T03:28:37;7.05;;;4.70;;
60088;SDS011;45961;53.574;55.878;2023-04-01T03:29:41;7.13;;;4.57;;
60088;SDS011;45961;53.574;55.878;2023-04-01T03:30:43;7.32;;;4.00;;
60088;SDS011;45961;53.574;55.878;2023-04-01T03:32:45;7.07;;;4.45;;
60088;SDS011;45961;53.574;55.878;2023-04-01T03:33:46;5.75;;;4.20;;
60088;SDS011;45961;53.574;55.878;2023-04-01T03:34:47;6.57;;;4.25;;
60088;SDS011;45961;53.574;55.878;2023-04-01T03:35:48;6.68;;;4.40;;
60088;SDS011;45961;53.574;55.878;2023-04-01T03:36:53;9.27;;;4.75;;
60088;SDS011;45961;53.574;55.878;2023-04-01T03:37:54;6.20;;;4.03;;
60088;SDS011;45961;53.574;55.878;2023-04-01T03:38:55;8.32;;;4.70;;
60088;SDS011;45961;53.574;55.878;2023-04-01T03:40:06;8.93;;;4.97;;
60088;SDS011;45961;53.574;55.878;2023-04-01T03:41:13;6.60;;;4.78;;
60088;SDS011;45961;53.574;55.878;2023-04-01T03:42:16;9.80;;;4.68;;
60088;SDS011;45961;53.574;55.878;2023-04-01T03:43:18;10.23;;;4.75;;
60088;SDS011;45961;53.574;55.878;2023-04-01T03:44:19;8.95;;;4.63;;
60088;SDS011;45961;53.574;55.878;2023-04-01T03:45:26;7.65;;;4.78;;
60088;SDS011;45961;53.574;55.878;2023-04-01T03:46:27;6.70;;;5.03;;
60088;SDS011;45961;53.574;55.878;2023-04-01T03:47:28;10.43;;;5.40;;
60088;SDS011;45961;53.574;55.878;2023-04-01T03:48:29;8.20;;;6.03;;
60088;SDS011;45961;53.574;55.878;2023-04-01T03:49:31;7.93;;;5.43;;
60088;SDS011;45961;53.574;55.878;2023-04-01T03:50:33;10.23;;;5.53;;
60088;SDS011;45961;53.574;55.878;2023-04-01T03:51:35;10.13;;;6.03;;
60088;SDS011;45961;53.574;55.878;2023-04-01T03:52:38;8.55;;;5.35;;
60088;SDS011;45961;53.574;55.878;2023-04-01T03:54:40;10.00;;;4.63;;
60088;SDS011;45961;53.574;55.878;2023-04-01T03:55:45;8.95;;;5.03;;
60088;SDS011;45961;53.574;55.878;2023-04-01T03:56:46;7.95;;;5.57;;
60088;SDS011;45961;53.574;55.878;2023-04-01T03:58:52;7.90;;;4.55;;
60088;SDS011;45961;53.574;55.878;2023-04-01T03:59:53;7.70;;;4.38;;
60088;SDS011;45961;53.574;55.878;2023-04-01T04:00:55;10.02;;;6.93;;
60088;SDS011;45961;53.574;55.878;2023-04-01T04:01:56;6.88;;;5.20;;
60088;SDS011;45961;53.574;55.878;2023-04-01T04:02:58;8.95;;;5.60;;
60088;SDS011;45961;53.574;55.878;2023-04-01T04:04:04;8.13;;;5.40;;
60088;SDS011;45961;53.574;55.878;2023-04-01T04:05:06;8.20;;;5.10;;
60088;SDS011;45961;53.574;55.878;2023-04-01T04:06:10;9.82;;;5.82;;
60088;SDS011;45961;53.574;55.878;2023-04-01T04:07:12;9.68;;;5.63;;
60088;SDS011;45961;53.574;55.878;2023-04-01T04:08:39;10.20;;;5.97;;
60088;SDS011;45961;53.574;55.878;2023-04-01T04:09:40;8.27;;;5.30;;
60088;SDS011;45961;53.574;55.878;2023-04-01T04:10:41;10.35;;;6.32;;
60088;SDS011;45961;53.574;55.878;2023-04-01T04:11:43;10.50;;;7.70;;
60088;SDS011;45961;53.574;55.878;2023-04-01T04:12:45;10.48;;;6.57;;
60088;SDS011;45961;53.574;55.878;2023-04-01T04:13:46;11.52;;;8.63;;
60088;SDS011;45961;53.574;55.878;2023-04-01T04:14:50;12.07;;;6.90;;
60088;SDS011;45961;53.574;55.878;2023-04-01T04:15:51;10.50;;;6.45;;
60088;SDS011;45961;53.574;55.878;2023-04-01T04:16:52;11.07;;;6.78;;
60088;SDS011;45961;53.574;55.878;2023-04-01T04:17:53;10.38;;;6.95;;
60088;SDS011;45961;53.574;55.878;2023-04-01T04:18:54;9.85;;;6.40;;
60088;SDS011;45961;53.574;55.878;2023-04-01T04:19:55;11.13;;;7.45;;
60088;SDS011;45961;53.574;55.878;2023-04-01T04:20:56;10.38;;;6.85;;
60088;SDS011;45961;53.574;55.878;2023-04-01T04:21:59;12.77;;;7.50;;
60088;SDS011;45961;53.574;55.878;2023-04-01T04:23:02;11.40;;;6.55;;
60088;SDS011;45961;53.574;55.878;2023-04-01T04:24:03;9.65;;;6.22;;
60088;SDS011;45961;53.574;55.878;2023-04-01T04:25:24;10.95;;;7.03;;
60088;SDS011;45961;53.574;55.878;2023-04-01T04:26:25;11.63;;;6.55;;
60088;SDS011;45961;53.574;55.878;2023-04-01T04:27:33;10.20;;;6.93;;
60088;SDS011;45961;53.574;55.878;2023-04-01T04:28:41;10.55;;;6.85;;
60088;SDS011;45961;53.574;55.878;2023-04-01T04:29:42;10.57;;;7.50;;
60088;SDS011;45961;53.574;55.878;2023-04-01T04:30:43;11.60;;;7.90;;
60088;SDS011;45961;53.574;55.878;2023-04-01T04:31:44;12.55;;;7.65;;
60088;SDS011;45961;53.574;55.878;2023-04-01T04:32:46;11.60;;;8.05;;
60088;SDS011;45961;53.574;55.878;2023-04-01T04:33:50;10.80;;;7.28;;
60088;SDS011;45961;53.574;55.878;2023-04-01T04:34:51;12.13;;;8.30;;
60088;SDS011;45961;53.574;55.878;2023-04-01T04:35:57;9.30;;;7.72;;
60088;SDS011;45961;53.574;55.878;2023-04-01T04:36:59;12.85;;;7.40;;
60088;SDS011;45961;53.574;55.878;2023-04-01T04:38:04;10.13;;;7.00;;
60088;SDS011;45961;53.574;55.878;2023-04-01T04:39:07;10.38;;;8.10;;
60088;SDS011;45961;53.574;55.878;2023-04-01T04:40:09;9.02;;;7.60;;
60088;SDS011;45961;53.574;55.878;2023-04-01T04:41:10;8.82;;;6.53;;
60088;SDS011;45961;53.574;55.878;2023-04-01T04:42:15;12.55;;;7.50;;
60088;SDS011;45961;53.574;55.878;2023-04-01T04:43:16;9.93;;;7.22;;
60088;SDS011;45961;53.574;55.878;2023-04-01T04:44:18;13.15;;;7.80;;
60088;SDS011;45961;53.574;55.878;2023-04-01T04:45:19;11.82;;;8.25;;
60088;SDS011;45961;53.574;55.878;2023-04-01T04:46:27;10.93;;;7.13;;
60088;SDS011;45961;53.574;55.878;2023-04-01T04:47:35;12.77;;;7.50;;
60088;SDS011;45961;53.574;55.878;2023-04-01T04:48:36;13.55;;;8.45;;
60088;SDS011;45961;53.574;55.878;2023-04-01T04:49:38;9.90;;;7.85;;
60088;SDS011;45961;53.574;55.878;2023-04-01T04:50:43;10.75;;;8.35;;
60088;SDS011;45961;53.574;55.878;2023-04-01T04:51:43;11.65;;;8.38;;
60088;SDS011;45961;53.574;55.878;2023-04-01T04:52:46;13.25;;;8.38;;
60088;SDS011;45961;53.574;55.878;2023-04-01T04:53:47;13.48;;;8.70;;
60088;SDS011;45961;53.574;55.878;2023-04-01T04:54:49;11.73;;;8.48;;
60088;SDS011;45961;53.574;55.878;2023-04-01T04:55:50;12.02;;;8.20;;
60088;SDS011;45961;53.574;55.878;2023-04-01T04:57:07;11.65;;;9.07;;
60088;SDS011;45961;53.574;55.878;2023-04-01T04:58:14;12.52;;;9.20;;
60088;SDS011;45961;53.574;55.878;2023-04-01T04:59:17;13.45;;;8.30;;
60088;SDS011;45961;53.574;55.878;2023-04-01T05:00:25;12.25;;;8.52;;
60088;SDS011;45961;53.574;55.878;2023-04-01T05:01:30;13.00;;;9.00;;
60088;SDS011;45961;53.574;55.878;2023-04-01T05:02:33;12.02;;;9.15;;
60088;SDS011;45961;53.574;55.878;2023-04-01T05:03:34;12.27;;;8.13;;
60088;SDS011;45961;53.574;55.878;2023-04-01T05:04:36;11.57;;;9.05;;
60088;SDS011;45961;53.574;55.878;2023-04-01T05:05:38;10.75;;;8.32;;
60088;SDS011;45961;53.574;55.878;2023-04-01T05:06:40;12.25;;;8.00;;
60088;SDS011;45961;53.574;55.878;2023-04-01T05:07:42;9.93;;;7.38;;
60088;SDS011;45961;53.574;55.878;2023-04-01T05:08:44;12.02;;;7.25;;
60088;SDS011;45961;53.574;55.878;2023-04-01T05:09:45;9.93;;;6.60;;
60088;SDS011;45961;53.574;55.878;2023-04-01T05:10:47;9.50;;;6.90;;
60088;SDS011;45961;53.574;55.878;2023-04-01T05:11:49;10.02;;;7.07;;
60088;SDS011;45961;53.574;55.878;2023-04-01T05:13:54;9.95;;;6.95;;
60088;SDS011;45961;53.574;55.878;2023-04-01T05:14:55;13.85;;;9.70;;
60088;SDS011;45961;53.574;55.878;2023-04-01T05:15:56;24.80;;;16.95;;
60088;SDS011;45961;53.574;55.878;2023-04-01T05:16:57;23.27;;;16.52;;
60088;SDS011;45961;53.574;55.878;2023-04-01T05:17:58;17.17;;;11.30;;
60088;SDS011;45961;53.574;55.878;2023-04-01T05:18:59;9.90;;;7.93;;
60088;SDS011;45961;53.574;55.878;2023-04-01T05:20:01;11.52;;;7.45;;
60088;SDS011;45961;53.574;55.878;2023-04-01T05:21:03;11.15;;;6.80;;
60088;SDS011;45961;53.574;55.878;2023-04-01T05:22:05;13.75;;;8.85;;
60088;SDS011;45961;53.574;55.878;2023-04-01T05:23:06;15.00;;;10.90;;
60088;SDS011;45961;53.574;55.878;2023-04-01T05:24:08;20.70;;;13.75;;
60088;SDS011;45961;53.574;55.878;2023-04-01T05:25:10;21.48;;;13.70;;
60088;SDS011;45961;53.574;55.878;2023-04-01T05:26:12;21.67;;;13.75;;
60088;SDS011;45961;53.574;55.878;2023-04-01T05:27:14;23.08;;;13.43;;
60088;SDS011;45961;53.574;55.878;2023-04-01T05:28:17;20.90;;;13.70;;
60088;SDS011;45961;53.574;55.878;2023-04-01T05:29:19;19.42;;;13.52;;
60088;SDS011;45961;53.574;55.878;2023-04-01T05:30:29;20.83;;;10.80;;
60088;SDS011;45961;53.574;55.878;2023-04-01T05:31:35;11.95;;;7.88;;
60088;SDS011;45961;53.574;55.878;2023-04-01T05:32:37;11.15;;;7.53;;
60088;SDS011;45961;53.574;55.878;2023-04-01T05:33:38;8.95;;;6.88;;
60088;SDS011;45961;53.574;55.878;2023-04-01T05:35:40;11.23;;;7.13;;
60088;SDS011;45961;53.574;55.878;2023-04-01T05:36:42;9.60;;;6.75;;
60088;SDS011;45961;53.574;55.878;2023-04-01T05:37:44;8.63;;;5.80;;
60088;SDS011;45961;53.574;55.878;2023-04-01T05:38:45;14.10;;;6.93;;
60088;SDS011;45961;53.574;55.878;2023-04-01T05:39:47;9.60;;;6.78;;
60088;SDS011;45961;53.574;55.878;2023-04-01T05:40:48;8.60;;;7.28;;
60088;SDS011;45961;53.574;55.878;2023-04-01T05:42:50;6.95;;;5.30;;
60088;SDS011;45961;53.574;55.878;2023-04-01T05:43:51;8.32;;;5.78;;
60088;SDS011;45961;53.574;55.878;2023-04-01T05:45:19;8.93;;;7.25;;
60088;SDS011;45961;53.574;55.878;2023-04-01T05:46:40;9.45;;;6.30;;
60088;SDS011;45961;53.574;55.878;2023-04-01T05:47:56;12.70;;;5.78;;
60088;SDS011;45961;53.574;55.878;2023-04-01T05:48:57;8.02;;;5.78;;
60088;SDS011;45961;53.574;55.878;2023-04-01T05:49:59;7.57;;;4.95;;
60088;SDS011;45961;53.574;55.878;2023-04-01T05:51:00;7.95;;;4.78;;
60088;SDS011;45961;53.574;55.878;2023-04-01T05:52:02;5.60;;;4.53;;
60088;SDS011;45961;53.574;55.878;2023-04-01T05:53:05;7.85;;;4.75;;
60088;SDS011;45961;53.574;55.878;2023-04-01T05:54:06;6.75;;;4.68;;
60088;SDS011;45961;53.574;55.878;2023-04-01T05:55:08;6.13;;;3.95;;
60088;SDS011;45961;53.574;55.878;2023-04-01T05:56:09;7.03;;;4.22;;
60088;SDS011;45961;53.574;55.878;2023-04-01T05:57:14;6.93;;;4.13;;
60088;SDS011;45961;53.574;55.878;2023-04-01T05:58:16;6.50;;;4.18;;
60088;SDS011;45961;53.574;55.878;2023-04-01T05:59:20;6.50;;;3.50;;
60088;SDS011;45961;53.574;55.878;2023-04-01T06:00:21;8.07;;;3.83;;
60088;SDS011;45961;53.574;55.878;2023-04-01T06:01:22;7.47;;;3.65;;
60088;SDS011;45961;53.574;55.878;2023-04-01T06:02:23;5.63;;;3.20;;
60088;SDS011;45961;53.574;55.878;2023-04-01T06:03:25;6.20;;;4.00;;
60088;SDS011;45961;53.574;55.878;2023-04-01T06:04:26;5.80;;;3.60;;
60088;SDS011;45961;53.574;55.878;2023-04-01T06:05:43;7.22;;;3.10;;
60088;SDS011;45961;53.574;55.878;2023-04-01T06:06:44;6.70;;;3.33;;
60088;SDS011;45961;53.574;55.878;2023-04-01T06:07:47;5.03;;;2.83;;
60088;SDS011;45961;53.574;55.878;2023-04-01T06:08:49;7.70;;;3.33;;
60088;SDS011;45961;53.574;55.878;2023-04-01T06:09:50;4.93;;;2.92;;
60088;SDS011;45961;53.574;55.878;2023-04-01T06:12:36;4.55;;;2.53;;
60088;SDS011;45961;53.574;55.878;2023-04-01T06:16:42;5.43;;;2.78;;
60088;SDS011;45961;53.574;55.878;2023-04-01T06:23:17;8.10;;;3.47;;
60088;SDS011;45961;53.574;55.878;2023-04-01T06:25:01;5.63;;;3.55;;
60088;SDS011;45961;53.574;55.878;2023-04-01T06:29:53;9.48;;;5.50;;
60088;SDS011;45961;53.574;55.878;2023-04-01T06:31:10;63.20;;;38.47;;
60088;SDS011;45961;53.574;55.878;2023-04-01T06:32:45;24.92;;;13.45;;
60088;SDS011;45961;53.574;55.878;2023-04-01T06:33:56;14.43;;;9.38;;
60088;SDS011;45961;53.574;55.878;2023-04-01T06:35:22;12.73;;;7.65;;
60088;SDS011;45961;53.574;55.878;2023-04-01T06:48:15;9.63;;;4.18;;
60088;SDS011;45961;53.574;55.878;2023-04-01T06:56:41;10.50;;;3.83;;
60088;SDS011;45961;53.574;55.878;2023-04-01T06:57:53;8.18;;;4.20;;
60088;SDS011;45961;53.574;55.878;2023-04-01T06:59:12;9.18;;;3.63;;
60088;SDS011;45961;53.574;55.878;2023-04-01T07:01:42;6.70;;;3.95;;
60088;SDS011;45961;53.574;55.878;2023-04-01T07:02:50;7.25;;;3.75;;
60088;SDS011;45961;53.574;55.878;2023-04-01T07:04:05;6.82;;;3.75;;
60088;SDS011;45961;53.574;55.878;2023-04-01T07:05:11;8.50;;;4.43;;
60088;SDS011;45961;53.574;55.878;2023-04-01T07:06:30;7.15;;;4.32;;
60088;SDS011;45961;53.574;55.878;2023-04-01T07:07:41;8.45;;;3.80;;
60088;SDS011;45961;53.574;55.878;2023-04-01T07:08:47;9.20;;;3.88;;
60088;SDS011;45961;53.574;55.878;2023-04-01T07:09:53;6.78;;;3.80;;
60088;SDS011;45961;53.574;55.878;2023-04-01T07:11:09;8.88;;;3.50;;
60088;SDS011;45961;53.574;55.878;2023-04-01T07:16:47;8.55;;;4.78;;
60088;SDS011;45961;53.574;55.878;2023-04-01T07:17:57;5.28;;;3.55;;
60088;SDS011;45961;53.574;55.878;2023-04-01T07:20:37;5.18;;;3.13;;
60088;SDS011;45961;53.574;55.878;2023-04-01T07:21:44;7.93;;;4.13;;
60088;SDS011;45961;53.574;55.878;2023-04-01T07:23:00;10.05;;;3.75;;
60088;SDS011;45961;53.574;55.878;2023-04-01T07:24:39;6.93;;;3.30;;
60088;SDS011;45961;53.574;55.878;2023-04-01T07:25:45;5.32;;;3.20;;
60088;SDS011;45961;53.574;55.878;2023-04-01T07:27:31;6.28;;;2.83;;
60088;SDS011;45961;53.574;55.878;2023-04-01T07:30:16;5.55;;;2.58;;
60088;SDS011;45961;53.574;55.878;2023-04-01T07:35:09;6.57;;;2.50;;
60088;SDS011;45961;53.574;55.878;2023-04-01T07:36:26;5.03;;;2.67;;
60088;SDS011;45961;53.574;55.878;2023-04-01T07:38:05;3.22;;;2.85;;
60088;SDS011;45961;53.574;55.878;2023-04-01T07:39:37;7.10;;;3.28;;
60088;SDS011;45961;53.574;55.878;2023-04-01T07:40:51;6.40;;;2.60;;
60088;SDS011;45961;53.574;55.878;2023-04-01T07:42:00;5.18;;;2.47;;
60088;SDS011;45961;53.574;55.878;2023-04-01T07:49:50;6.20;;;3.20;;
60088;SDS011;45961;53.574;55.878;2023-04-01T07:51:19;4.40;;;2.80;;
60088;SDS011;45961;53.574;55.878;2023-04-01T07:57:43;5.72;;;3.03;;
60088;SDS011;45961;53.574;55.878;2023-04-01T07:59:13;4.80;;;3.05;;
60088;SDS011;45961;53.574;55.878;2023-04-01T08:07:46;2.92;;;2.55;;